Weather History for Eagle River, WI

Change the Weather History Date:

Friday, October 24, 2014

  Actual Average Record
Temperature  
Mean Temperature 52 °F -  
Max Temperature 61 °F 60 °F 82 °F (2011)
Min Temperature 42 °F 35 °F 21 °F (1999)
Degree Days  
Heating Degree Days 14    
Growing Degree Days 2 (Base 50)    
Moisture  
Dew Point 45 °F    
Average Humidity 84    
Maximum Humidity 100    
Minimum Humidity 48    
Precipitation  
Precipitation 0.00 in - - ()
Sea Level Pressure  
Sea Level Pressure 29.91 in    
Wind  
Wind Speed 5 mph (SW)    
Max Wind Speed 12 mph    
Max Gust Speed -    
Visibility 6 miles    
Events Fog    
Averages and records for this station are not official NWS values.
T = Trace of Precipitation, MM = Missing Value Source: NWS Daily Summary

Daily Weather History Graph

Daily Weather History Graph

Search for Another Location

Airport:

Trip Planner

Search our weather history database for the weather conditions in past years. The results will help you decide how hot, cold, wet, or windy it might be!

Date:

Astronomy

Oct. 24, 2014 Rise Set
Actual Time 7:26 AM CDT 5:55 PM CDT
Civil Twilight 6:55 AM CDT 6:26 PM CDT
Nautical Twilight 6:20 AM CDT 7:00 PM CDT
Astronomical Twilight 5:46 AM CDT 7:35 PM CDT
Moon 8:06 AM CDT (10/24) 6:32 PM CDT (10/24)
Length of Visible Light 11h 30m
Length of Day
10h 29m
New Moon, 1% of the Moon is Illuminated
Oct 24
New Moon
Oct 30
First Quarter
Nov 6
Full
Nov 14
Last Quarter
Nov 22
New

Hourly Weather History & Observations

Time (CDT) Temp. Windchill Dew Point Humidity Pressure Visibility Wind Dir Wind Speed Gust Speed Precip Events Conditions
12:15 AM 43.9 °F 39.9 °F 43.9 °F 100% 29.99 in 0.8 mi WSW 6.9 mph - N/A   Overcast
12:35 AM 43.7 °F 40.3 °F 43.7 °F 100% 29.99 in 0.5 mi West 5.8 mph - N/A Fog Fog
12:55 AM 43.7 °F 39.7 °F 43.7 °F 100% 29.99 in 0.8 mi WSW 6.9 mph - N/A   Overcast
1:15 AM 43.9 °F 39.9 °F 43.9 °F 100% 29.99 in 0.8 mi WSW 6.9 mph - N/A   Overcast
1:35 AM 43.7 °F 41.1 °F 43.7 °F 100% 29.99 in 1.0 mi SW 4.6 mph - N/A   Overcast
1:55 AM 43.9 °F 40.5 °F 43.9 °F 100% 29.99 in 0.8 mi WSW 5.8 mph - N/A   Overcast
2:15 AM 43.9 °F 40.5 °F 43.9 °F 100% 29.99 in 0.8 mi WSW 5.8 mph - N/A   Overcast
2:35 AM 43.9 °F 39.3 °F 43.9 °F 100% 30.00 in 0.8 mi WSW 8.1 mph - N/A   Overcast
2:55 AM 43.9 °F 39.3 °F 43.9 °F 100% 30.00 in 0.5 mi WSW 8.1 mph - N/A Fog Fog
3:15 AM 43.9 °F 40.5 °F 43.9 °F 100% 29.98 in 0.5 mi WSW 5.8 mph - N/A Fog Fog
3:35 AM 43.7 °F 42.1 °F 43.7 °F 100% 29.98 in 0.2 mi WSW 3.5 mph - N/A Fog Fog
3:55 AM 43.7 °F 40.3 °F 43.7 °F 100% 29.98 in 0.5 mi SW 5.8 mph - N/A Fog Fog
4:15 AM 43.7 °F 41.1 °F 43.7 °F 100% 29.98 in 0.5 mi WSW 4.6 mph - N/A Fog Fog
4:35 AM 43.9 °F 41.3 °F 43.9 °F 100% 29.99 in 0.5 mi WSW 4.6 mph - N/A Fog Fog
4:55 AM 43.7 °F - 43.7 °F 100% 29.99 in 0.8 mi Calm Calm - N/A   Overcast
5:15 AM 43.7 °F - 43.7 °F 100% 29.99 in 0.5 mi Calm Calm - N/A Fog Fog
5:35 AM 43.7 °F - 43.7 °F 100% 29.98 in 0.5 mi Calm Calm - N/A Fog Fog
5:55 AM 43.2 °F 40.5 °F 43.2 °F 100% 29.98 in 0.5 mi WSW 4.6 mph - N/A Fog Fog
6:15 AM 42.8 °F 41.1 °F 42.8 °F 100% 29.98 in 0.8 mi SSW 3.5 mph - N/A   Overcast
6:35 AM 43.0 °F - 43.0 °F 100% 29.97 in 0.5 mi Calm Calm - N/A Fog Fog
6:55 AM 42.8 °F - 42.8 °F 100% 29.97 in 0.5 mi Calm Calm - N/A Fog Fog
7:15 AM 42.8 °F - 42.8 °F 100% 29.96 in 0.5 mi Calm Calm - N/A Fog Fog
7:35 AM 42.4 °F - 42.4 °F 100% 29.96 in 0.2 mi Calm Calm - N/A Fog Fog
7:55 AM 42.3 °F - 42.3 °F 100% 29.97 in 0.2 mi Calm Calm - N/A Fog Fog
8:15 AM 42.3 °F 40.5 °F 42.3 °F 100% 29.97 in 0.2 mi South 3.5 mph - N/A Fog Fog
8:35 AM 42.6 °F 40.9 °F 42.6 °F 100% 29.96 in 0.2 mi SSW 3.5 mph - N/A Fog Fog
8:55 AM 42.8 °F - 42.8 °F 100% 29.97 in 0.2 mi Calm Calm - N/A Fog Fog
9:15 AM 43.3 °F - 43.3 °F 100% 29.97 in 0.2 mi Calm Calm - N/A Fog Fog
9:35 AM 43.7 °F 41.1 °F 43.7 °F 100% 29.97 in 0.2 mi SW 4.6 mph - N/A Fog Fog
9:55 AM 44.1 °F - 44.1 °F 100% 29.96 in 0.5 mi Calm Calm - N/A Fog Fog
10:15 AM 44.8 °F 42.4 °F 44.8 °F 100% 29.96 in 0.5 mi South 4.6 mph - N/A Fog Fog
10:35 AM 45.3 °F 43.0 °F 45.3 °F 100% 29.95 in 2.5 mi SW 4.6 mph - N/A   Overcast
10:55 AM 46.0 °F 44.8 °F 46.0 °F 100% 29.95 in 2.0 mi South 3.5 mph - N/A   Overcast
11:15 AM 46.4 °F 45.2 °F 46.4 °F 100% 29.95 in 5.0 mi SSW 3.5 mph - N/A   Overcast
11:35 AM 46.9 °F - 46.9 °F 100% 29.93 in 5.0 mi SSW 3.5 mph - N/A   Overcast
11:55 AM 47.8 °F - 47.8 °F 100% 29.93 in 7.0 mi Calm Calm - N/A   Scattered Clouds
12:15 PM 50.0 °F - 50.0 °F 100% 29.93 in 7.0 mi SW 4.6 mph - N/A   Mostly Cloudy
12:35 PM 52.0 °F - 48.0 °F 86% 29.92 in 10.0 mi SW 8.1 mph - N/A   Scattered Clouds
12:55 PM 53.8 °F - 48.0 °F 81% 29.91 in 10.0 mi SW 5.8 mph - N/A   Clear
1:15 PM 55.6 °F - 47.1 °F 73% 29.90 in 10.0 mi South 4.6 mph - N/A   Clear
1:35 PM 56.7 °F - 46.6 °F 69% 29.89 in 10.0 mi SW 6.9 mph - N/A   Clear
1:55 PM 58.6 °F - 45.1 °F 61% 29.88 in 10.0 mi SW 8.1 mph - N/A   Clear
2:15 PM 60.1 °F - 45.3 °F 58% 29.88 in 10.0 mi SSW 5.8 mph - N/A   Clear
2:35 PM 60.3 °F - 43.9 °F 55% 29.86 in 10.0 mi SW 6.9 mph - N/A   Clear
2:55 PM 61.2 °F - 43.2 °F 52% 29.86 in 10.0 mi SW 5.8 mph - N/A   Clear
3:15 PM 61.2 °F - 41.4 °F 48% 29.85 in 10.0 mi SW 11.5 mph - N/A   Clear
3:35 PM 60.3 °F - 41.0 °F 49% 29.85 in 10.0 mi SSW 5.8 mph - N/A   Scattered Clouds
3:55 PM 60.4 °F - 40.6 °F 48% 29.85 in 10.0 mi SSW 8.1 mph - N/A   Mostly Cloudy
4:15 PM 59.9 °F - 40.6 °F 49% 29.84 in 10.0 mi SSW 5.8 mph - N/A   Scattered Clouds
4:35 PM 60.1 °F - 42.1 °F 51% 29.84 in 10.0 mi SSW 4.6 mph - N/A   Scattered Clouds
4:55 PM 58.6 °F - 41.4 °F 53% 29.84 in 10.0 mi SSW 4.6 mph - N/A   Mostly Cloudy
5:15 PM 57.9 °F - 41.5 °F 54% 29.84 in 10.0 mi SSW 3.5 mph - N/A   Scattered Clouds
5:35 PM 57.2 °F - 42.1 °F 57% 29.84 in 10.0 mi South 5.8 mph - N/A   Mostly Cloudy
5:55 PM 56.7 °F - 42.6 °F 59% 29.83 in 10.0 mi SSW 4.6 mph - N/A   Overcast
6:15 PM 56.3 °F - 43.7 °F 63% 29.83 in 10.0 mi SW 6.9 mph - N/A   Overcast
6:35 PM 55.9 °F - 44.2 °F 65% 29.84 in 10.0 mi SW 9.2 mph - N/A   Overcast
6:55 PM 55.4 °F - 44.6 °F 67% 29.83 in 10.0 mi SW 9.2 mph - N/A   Overcast
7:15 PM 55.4 °F - 44.8 °F 67% 29.83 in 10.0 mi SW 8.1 mph - N/A   Overcast
7:35 PM 54.9 °F - 45.1 °F 70% 29.82 in 10.0 mi SW 9.2 mph - N/A   Overcast
7:55 PM 54.7 °F - 45.5 °F 71% 29.82 in 10.0 mi SW 9.2 mph - N/A   Overcast
8:15 PM 54.5 °F - 45.9 °F 73% 29.83 in 10.0 mi SW 11.5 mph - N/A   Overcast
8:35 PM 54.5 °F - 45.9 °F 73% 29.81 in 10.0 mi SW 6.9 mph - N/A   Overcast
8:55 PM 54.5 °F - 46.0 °F 73% 29.81 in 10.0 mi SW 6.9 mph - N/A   Overcast
9:15 PM 54.0 °F - 46.4 °F 76% 29.81 in 10.0 mi SW 9.2 mph - N/A   Overcast
9:35 PM 54.0 °F - 46.8 °F 77% 29.81 in 10.0 mi SW 10.4 mph - N/A   Overcast
9:55 PM 53.8 °F - 47.3 °F 79% 29.82 in 10.0 mi WSW 9.2 mph - N/A   Overcast
10:15 PM 53.4 °F - 47.3 °F 80% 29.82 in 10.0 mi WSW 9.2 mph - N/A   Overcast
10:35 PM 52.9 °F - 47.5 °F 82% 29.81 in 10.0 mi SW 9.2 mph - N/A   Overcast
10:55 PM 52.9 °F - 47.5 °F 82% 29.79 in 10.0 mi SW 8.1 mph - N/A   Overcast
11:15 PM 52.7 °F - 48.2 °F 85% 29.80 in 10.0 mi WSW 9.2 mph - N/A   Overcast
11:35 PM 52.9 °F - 48.2 °F 84% 29.79 in 10.0 mi WSW 8.1 mph - N/A   Overcast
11:55 PM 52.3 °F - 50.5 °F 94% 29.79 in 10.0 mi WSW 8.1 mph - N/A   Mostly Cloudy